sensor_id;sensor_type;location;lat;lon;timestamp;P1;durP1;ratioP1;P2;durP2;ratioP2
38162;SDS011;23977;53.078;18.248;2023-11-19T00:01:11;28.10;;;15.55;;
38162;SDS011;23977;53.078;18.248;2023-11-19T00:03:56;26.50;;;15.30;;
38162;SDS011;23977;53.078;18.248;2023-11-19T00:06:22;24.80;;;14.85;;
38162;SDS011;23977;53.078;18.248;2023-11-19T00:08:47;30.70;;;16.80;;
38162;SDS011;23977;53.078;18.248;2023-11-19T00:11:13;32.38;;;18.50;;
38162;SDS011;23977;53.078;18.248;2023-11-19T00:13:41;33.45;;;18.80;;
38162;SDS011;23977;53.078;18.248;2023-11-19T00:16:07;35.70;;;19.70;;
38162;SDS011;23977;53.078;18.248;2023-11-19T00:18:33;30.92;;;17.85;;
38162;SDS011;23977;53.078;18.248;2023-11-19T00:20:59;32.22;;;17.95;;
38162;SDS011;23977;53.078;18.248;2023-11-19T00:23:24;29.45;;;16.60;;
38162;SDS011;23977;53.078;18.248;2023-11-19T00:25:50;30.63;;;16.40;;
38162;SDS011;23977;53.078;18.248;2023-11-19T00:28:16;28.25;;;16.05;;
38162;SDS011;23977;53.078;18.248;2023-11-19T00:30:42;29.67;;;16.85;;
38162;SDS011;23977;53.078;18.248;2023-11-19T00:33:07;31.35;;;17.30;;
38162;SDS011;23977;53.078;18.248;2023-11-19T00:35:34;32.22;;;17.40;;
38162;SDS011;23977;53.078;18.248;2023-11-19T00:37:59;34.55;;;16.92;;
38162;SDS011;23977;53.078;18.248;2023-11-19T00:40:25;34.75;;;18.30;;
38162;SDS011;23977;53.078;18.248;2023-11-19T00:42:51;30.98;;;17.85;;
38162;SDS011;23977;53.078;18.248;2023-11-19T00:45:17;31.55;;;17.02;;
38162;SDS011;23977;53.078;18.248;2023-11-19T00:47:42;29.05;;;16.40;;
38162;SDS011;23977;53.078;18.248;2023-11-19T00:50:08;29.98;;;16.55;;
38162;SDS011;23977;53.078;18.248;2023-11-19T00:52:35;29.02;;;15.85;;
38162;SDS011;23977;53.078;18.248;2023-11-19T00:55:02;28.52;;;16.25;;
38162;SDS011;23977;53.078;18.248;2023-11-19T00:57:27;28.50;;;16.15;;
38162;SDS011;23977;53.078;18.248;2023-11-19T00:59:53;30.17;;;16.58;;
38162;SDS011;23977;53.078;18.248;2023-11-19T01:02:18;28.38;;;16.23;;
38162;SDS011;23977;53.078;18.248;2023-11-19T01:04:44;31.60;;;16.33;;
38162;SDS011;23977;53.078;18.248;2023-11-19T01:07:10;31.92;;;16.73;;
38162;SDS011;23977;53.078;18.248;2023-11-19T01:09:38;32.95;;;17.70;;
38162;SDS011;23977;53.078;18.248;2023-11-19T01:12:04;30.83;;;17.55;;
38162;SDS011;23977;53.078;18.248;2023-11-19T01:14:30;34.28;;;17.80;;
38162;SDS011;23977;53.078;18.248;2023-11-19T01:16:56;36.63;;;18.48;;
38162;SDS011;23977;53.078;18.248;2023-11-19T01:19:22;38.80;;;19.10;;
38162;SDS011;23977;53.078;18.248;2023-11-19T01:21:48;35.55;;;19.13;;
38162;SDS011;23977;53.078;18.248;2023-11-19T01:24:15;39.30;;;19.48;;
38162;SDS011;23977;53.078;18.248;2023-11-19T01:26:41;36.85;;;19.50;;
38162;SDS011;23977;53.078;18.248;2023-11-19T01:29:14;35.55;;;18.63;;
38162;SDS011;23977;53.078;18.248;2023-11-19T01:31:40;36.97;;;19.10;;
38162;SDS011;23977;53.078;18.248;2023-11-19T01:34:07;35.97;;;18.25;;
38162;SDS011;23977;53.078;18.248;2023-11-19T01:36:33;33.58;;;18.77;;
38162;SDS011;23977;53.078;18.248;2023-11-19T01:38:59;32.50;;;17.10;;
38162;SDS011;23977;53.078;18.248;2023-11-19T01:41:24;32.95;;;17.67;;
38162;SDS011;23977;53.078;18.248;2023-11-19T01:43:50;35.25;;;18.92;;
38162;SDS011;23977;53.078;18.248;2023-11-19T01:46:16;33.42;;;18.52;;
38162;SDS011;23977;53.078;18.248;2023-11-19T01:48:45;37.50;;;18.10;;
38162;SDS011;23977;53.078;18.248;2023-11-19T01:51:14;38.22;;;19.75;;
38162;SDS011;23977;53.078;18.248;2023-11-19T01:53:42;35.53;;;18.73;;
38162;SDS011;23977;53.078;18.248;2023-11-19T01:56:09;35.13;;;19.23;;
38162;SDS011;23977;53.078;18.248;2023-11-19T01:58:37;38.60;;;19.95;;
38162;SDS011;23977;53.078;18.248;2023-11-19T02:01:05;39.90;;;19.95;;
38162;SDS011;23977;53.078;18.248;2023-11-19T02:03:31;42.38;;;20.83;;
38162;SDS011;23977;53.078;18.248;2023-11-19T02:05:58;38.00;;;19.95;;
38162;SDS011;23977;53.078;18.248;2023-11-19T02:08:25;40.65;;;20.50;;
38162;SDS011;23977;53.078;18.248;2023-11-19T02:10:51;44.03;;;21.20;;
38162;SDS011;23977;53.078;18.248;2023-11-19T02:13:17;43.55;;;21.25;;
38162;SDS011;23977;53.078;18.248;2023-11-19T02:15:44;39.03;;;20.17;;
38162;SDS011;23977;53.078;18.248;2023-11-19T02:18:16;39.00;;;19.92;;
38162;SDS011;23977;53.078;18.248;2023-11-19T02:20:43;38.70;;;20.27;;
38162;SDS011;23977;53.078;18.248;2023-11-19T02:23:09;42.92;;;21.05;;
38162;SDS011;23977;53.078;18.248;2023-11-19T02:25:35;41.67;;;20.90;;
38162;SDS011;23977;53.078;18.248;2023-11-19T02:28:02;40.45;;;21.10;;
38162;SDS011;23977;53.078;18.248;2023-11-19T02:30:29;42.22;;;21.83;;
38162;SDS011;23977;53.078;18.248;2023-11-19T02:32:57;44.72;;;22.17;;
38162;SDS011;23977;53.078;18.248;2023-11-19T02:35:31;41.78;;;20.75;;
38162;SDS011;23977;53.078;18.248;2023-11-19T02:37:57;39.53;;;21.40;;
38162;SDS011;23977;53.078;18.248;2023-11-19T02:40:25;42.88;;;21.85;;
38162;SDS011;23977;53.078;18.248;2023-11-19T02:42:51;42.78;;;21.23;;
38162;SDS011;23977;53.078;18.248;2023-11-19T02:45:23;41.33;;;20.92;;
38162;SDS011;23977;53.078;18.248;2023-11-19T02:47:50;46.38;;;21.33;;
38162;SDS011;23977;53.078;18.248;2023-11-19T02:50:19;41.42;;;21.08;;
38162;SDS011;23977;53.078;18.248;2023-11-19T02:52:51;43.45;;;21.38;;
38162;SDS011;23977;53.078;18.248;2023-11-19T02:55:18;42.60;;;21.63;;
38162;SDS011;23977;53.078;18.248;2023-11-19T02:57:45;44.83;;;21.75;;
38162;SDS011;23977;53.078;18.248;2023-11-19T03:00:14;42.90;;;21.15;;
38162;SDS011;23977;53.078;18.248;2023-11-19T03:02:41;44.58;;;21.10;;
38162;SDS011;23977;53.078;18.248;2023-11-19T03:05:12;42.78;;;21.33;;
38162;SDS011;23977;53.078;18.248;2023-11-19T03:07:43;42.28;;;22.00;;
38162;SDS011;23977;53.078;18.248;2023-11-19T03:10:09;43.50;;;22.50;;
38162;SDS011;23977;53.078;18.248;2023-11-19T03:12:42;42.63;;;22.27;;
38162;SDS011;23977;53.078;18.248;2023-11-19T03:15:09;44.30;;;22.15;;
38162;SDS011;23977;53.078;18.248;2023-11-19T03:17:41;43.33;;;22.25;;
38162;SDS011;23977;53.078;18.248;2023-11-19T03:20:09;46.30;;;22.70;;
38162;SDS011;23977;53.078;18.248;2023-11-19T03:22:36;47.40;;;23.33;;
38162;SDS011;23977;53.078;18.248;2023-11-19T03:25:02;45.75;;;23.02;;
38162;SDS011;23977;53.078;18.248;2023-11-19T03:27:28;45.42;;;22.52;;
38162;SDS011;23977;53.078;18.248;2023-11-19T03:29:54;43.47;;;22.75;;
38162;SDS011;23977;53.078;18.248;2023-11-19T03:32:19;42.83;;;22.38;;
38162;SDS011;23977;53.078;18.248;2023-11-19T03:34:45;43.15;;;22.30;;
38162;SDS011;23977;53.078;18.248;2023-11-19T03:37:11;43.22;;;21.08;;
38162;SDS011;23977;53.078;18.248;2023-11-19T03:39:37;41.03;;;21.20;;
38162;SDS011;23977;53.078;18.248;2023-11-19T03:42:02;44.22;;;21.40;;
38162;SDS011;23977;53.078;18.248;2023-11-19T03:44:28;42.25;;;21.42;;
38162;SDS011;23977;53.078;18.248;2023-11-19T03:46:54;41.95;;;20.42;;
38162;SDS011;23977;53.078;18.248;2023-11-19T03:49:20;40.55;;;20.35;;
38162;SDS011;23977;53.078;18.248;2023-11-19T03:51:45;40.22;;;19.85;;
38162;SDS011;23977;53.078;18.248;2023-11-19T03:54:11;39.22;;;19.75;;
38162;SDS011;23977;53.078;18.248;2023-11-19T03:56:36;40.67;;;20.85;;
38162;SDS011;23977;53.078;18.248;2023-11-19T03:59:03;36.55;;;19.55;;
38162;SDS011;23977;53.078;18.248;2023-11-19T04:01:28;37.47;;;19.70;;
38162;SDS011;23977;53.078;18.248;2023-11-19T04:03:54;39.85;;;20.20;;
38162;SDS011;23977;53.078;18.248;2023-11-19T04:06:21;43.28;;;21.00;;
38162;SDS011;23977;53.078;18.248;2023-11-19T04:08:47;42.50;;;21.38;;
38162;SDS011;23977;53.078;18.248;2023-11-19T04:11:12;39.75;;;20.90;;
38162;SDS011;23977;53.078;18.248;2023-11-19T04:13:38;43.28;;;22.20;;
38162;SDS011;23977;53.078;18.248;2023-11-19T04:16:04;41.78;;;21.10;;
38162;SDS011;23977;53.078;18.248;2023-11-19T04:18:30;43.13;;;21.83;;
38162;SDS011;23977;53.078;18.248;2023-11-19T04:20:57;40.83;;;21.25;;
38162;SDS011;23977;53.078;18.248;2023-11-19T04:23:23;41.90;;;20.92;;
38162;SDS011;23977;53.078;18.248;2023-11-19T04:25:50;42.55;;;21.95;;
38162;SDS011;23977;53.078;18.248;2023-11-19T04:28:16;42.15;;;21.42;;
38162;SDS011;23977;53.078;18.248;2023-11-19T04:30:41;42.38;;;21.38;;
38162;SDS011;23977;53.078;18.248;2023-11-19T04:33:07;41.50;;;21.15;;
38162;SDS011;23977;53.078;18.248;2023-11-19T04:35:33;41.28;;;20.92;;
38162;SDS011;23977;53.078;18.248;2023-11-19T04:37:58;36.50;;;19.83;;
38162;SDS011;23977;53.078;18.248;2023-11-19T04:40:24;39.40;;;20.75;;
38162;SDS011;23977;53.078;18.248;2023-11-19T04:42:50;40.28;;;21.42;;
38162;SDS011;23977;53.078;18.248;2023-11-19T04:45:15;39.42;;;21.15;;
38162;SDS011;23977;53.078;18.248;2023-11-19T04:47:42;40.58;;;20.55;;
38162;SDS011;23977;53.078;18.248;2023-11-19T04:50:08;40.35;;;21.13;;
38162;SDS011;23977;53.078;18.248;2023-11-19T04:52:38;38.20;;;20.38;;
38162;SDS011;23977;53.078;18.248;2023-11-19T04:55:10;38.08;;;20.83;;
38162;SDS011;23977;53.078;18.248;2023-11-19T04:57:37;37.63;;;19.40;;
38162;SDS011;23977;53.078;18.248;2023-11-19T05:00:03;37.92;;;20.40;;
38162;SDS011;23977;53.078;18.248;2023-11-19T05:02:30;37.58;;;19.85;;
38162;SDS011;23977;53.078;18.248;2023-11-19T05:04:56;35.47;;;19.27;;
38162;SDS011;23977;53.078;18.248;2023-11-19T05:07:22;37.78;;;19.17;;
38162;SDS011;23977;53.078;18.248;2023-11-19T05:09:47;38.40;;;20.02;;
38162;SDS011;23977;53.078;18.248;2023-11-19T05:12:13;39.40;;;20.73;;
38162;SDS011;23977;53.078;18.248;2023-11-19T05:14:39;38.10;;;20.00;;
38162;SDS011;23977;53.078;18.248;2023-11-19T05:17:05;37.75;;;19.67;;
38162;SDS011;23977;53.078;18.248;2023-11-19T05:19:30;37.47;;;18.65;;
38162;SDS011;23977;53.078;18.248;2023-11-19T05:21:56;36.33;;;19.00;;
38162;SDS011;23977;53.078;18.248;2023-11-19T05:24:22;37.00;;;19.30;;
38162;SDS011;23977;53.078;18.248;2023-11-19T05:26:48;36.60;;;18.95;;
38162;SDS011;23977;53.078;18.248;2023-11-19T05:29:15;33.85;;;18.35;;
38162;SDS011;23977;53.078;18.248;2023-11-19T05:31:41;33.53;;;17.90;;
38162;SDS011;23977;53.078;18.248;2023-11-19T05:34:06;30.33;;;17.33;;
38162;SDS011;23977;53.078;18.248;2023-11-19T05:36:32;34.72;;;17.65;;
38162;SDS011;23977;53.078;18.248;2023-11-19T05:38:58;35.22;;;18.08;;
38162;SDS011;23977;53.078;18.248;2023-11-19T05:41:24;32.08;;;17.20;;
38162;SDS011;23977;53.078;18.248;2023-11-19T05:43:49;33.85;;;17.52;;
38162;SDS011;23977;53.078;18.248;2023-11-19T05:46:15;31.85;;;17.08;;
38162;SDS011;23977;53.078;18.248;2023-11-19T05:48:41;32.80;;;17.23;;
38162;SDS011;23977;53.078;18.248;2023-11-19T05:51:07;33.45;;;17.42;;
38162;SDS011;23977;53.078;18.248;2023-11-19T05:53:33;30.58;;;16.70;;
38162;SDS011;23977;53.078;18.248;2023-11-19T05:55:59;31.33;;;16.58;;
38162;SDS011;23977;53.078;18.248;2023-11-19T05:58:29;30.52;;;16.35;;
38162;SDS011;23977;53.078;18.248;2023-11-19T06:00:56;30.42;;;16.35;;
38162;SDS011;23977;53.078;18.248;2023-11-19T06:03:22;24.98;;;14.73;;
38162;SDS011;23977;53.078;18.248;2023-11-19T06:05:49;27.75;;;15.50;;
38162;SDS011;23977;53.078;18.248;2023-11-19T06:08:15;27.42;;;15.38;;
38162;SDS011;23977;53.078;18.248;2023-11-19T06:10:42;26.08;;;15.07;;
38162;SDS011;23977;53.078;18.248;2023-11-19T06:13:11;26.92;;;15.13;;
38162;SDS011;23977;53.078;18.248;2023-11-19T06:15:41;30.05;;;15.02;;
38162;SDS011;23977;53.078;18.248;2023-11-19T06:18:07;26.63;;;14.90;;
38162;SDS011;23977;53.078;18.248;2023-11-19T06:20:33;26.13;;;14.52;;
38162;SDS011;23977;53.078;18.248;2023-11-19T06:22:59;26.02;;;14.35;;
38162;SDS011;23977;53.078;18.248;2023-11-19T06:25:25;24.65;;;14.02;;
38162;SDS011;23977;53.078;18.248;2023-11-19T06:27:51;26.63;;;14.07;;
38162;SDS011;23977;53.078;18.248;2023-11-19T06:30:18;25.75;;;14.45;;
38162;SDS011;23977;53.078;18.248;2023-11-19T06:32:44;24.52;;;13.90;;
38162;SDS011;23977;53.078;18.248;2023-11-19T06:35:10;27.45;;;13.52;;
38162;SDS011;23977;53.078;18.248;2023-11-19T06:37:36;25.73;;;14.23;;
38162;SDS011;23977;53.078;18.248;2023-11-19T06:40:04;24.20;;;13.70;;
38162;SDS011;23977;53.078;18.248;2023-11-19T06:42:30;24.98;;;13.38;;
38162;SDS011;23977;53.078;18.248;2023-11-19T06:44:56;27.42;;;14.63;;
38162;SDS011;23977;53.078;18.248;2023-11-19T06:47:25;27.45;;;14.80;;
38162;SDS011;23977;53.078;18.248;2023-11-19T06:49:52;26.10;;;14.60;;
38162;SDS011;23977;53.078;18.248;2023-11-19T06:52:18;23.30;;;13.43;;
38162;SDS011;23977;53.078;18.248;2023-11-19T06:54:44;24.02;;;13.05;;
38162;SDS011;23977;53.078;18.248;2023-11-19T06:57:10;25.10;;;13.25;;
38162;SDS011;23977;53.078;18.248;2023-11-19T06:59:37;23.67;;;13.20;;
38162;SDS011;23977;53.078;18.248;2023-11-19T07:02:03;25.13;;;13.52;;
38162;SDS011;23977;53.078;18.248;2023-11-19T07:04:30;21.92;;;13.07;;
38162;SDS011;23977;53.078;18.248;2023-11-19T07:06:56;22.05;;;12.27;;
38162;SDS011;23977;53.078;18.248;2023-11-19T07:09:22;24.13;;;14.15;;
38162;SDS011;23977;53.078;18.248;2023-11-19T07:11:48;25.63;;;13.90;;
38162;SDS011;23977;53.078;18.248;2023-11-19T07:14:17;24.42;;;13.48;;
38162;SDS011;23977;53.078;18.248;2023-11-19T07:16:43;55.97;;;27.42;;
38162;SDS011;23977;53.078;18.248;2023-11-19T07:19:11;33.60;;;20.20;;
38162;SDS011;23977;53.078;18.248;2023-11-19T07:21:40;22.08;;;13.07;;
38162;SDS011;23977;53.078;18.248;2023-11-19T07:24:09;22.30;;;12.70;;
38162;SDS011;23977;53.078;18.248;2023-11-19T07:26:42;26.65;;;12.80;;
38162;SDS011;23977;53.078;18.248;2023-11-19T07:29:09;20.90;;;12.43;;
38162;SDS011;23977;53.078;18.248;2023-11-19T07:31:35;23.30;;;12.93;;
38162;SDS011;23977;53.078;18.248;2023-11-19T07:34:01;22.58;;;13.32;;
38162;SDS011;23977;53.078;18.248;2023-11-19T07:36:27;22.02;;;12.40;;
38162;SDS011;23977;53.078;18.248;2023-11-19T07:38:52;22.45;;;12.77;;
38162;SDS011;23977;53.078;18.248;2023-11-19T07:41:18;25.45;;;13.20;;
38162;SDS011;23977;53.078;18.248;2023-11-19T07:43:45;24.83;;;13.23;;
38162;SDS011;23977;53.078;18.248;2023-11-19T07:46:12;20.67;;;12.32;;
38162;SDS011;23977;53.078;18.248;2023-11-19T07:48:39;23.83;;;13.25;;
38162;SDS011;23977;53.078;18.248;2023-11-19T07:51:05;23.50;;;13.23;;
38162;SDS011;23977;53.078;18.248;2023-11-19T07:53:31;23.40;;;13.23;;
38162;SDS011;23977;53.078;18.248;2023-11-19T07:55:58;24.30;;;13.23;;
38162;SDS011;23977;53.078;18.248;2023-11-19T07:58:25;22.83;;;13.30;;
38162;SDS011;23977;53.078;18.248;2023-11-19T08:00:51;23.88;;;12.77;;
38162;SDS011;23977;53.078;18.248;2023-11-19T08:03:17;25.35;;;12.98;;
38162;SDS011;23977;53.078;18.248;2023-11-19T08:05:44;24.10;;;13.43;;
38162;SDS011;23977;53.078;18.248;2023-11-19T08:08:11;21.98;;;12.98;;
38162;SDS011;23977;53.078;18.248;2023-11-19T08:10:37;24.40;;;13.65;;
38162;SDS011;23977;53.078;18.248;2023-11-19T08:13:03;22.63;;;13.68;;
38162;SDS011;23977;53.078;18.248;2023-11-19T08:15:29;24.33;;;12.90;;
38162;SDS011;23977;53.078;18.248;2023-11-19T08:17:55;23.65;;;13.57;;
38162;SDS011;23977;53.078;18.248;2023-11-19T08:20:21;24.85;;;14.40;;
38162;SDS011;23977;53.078;18.248;2023-11-19T08:22:47;22.55;;;13.43;;
38162;SDS011;23977;53.078;18.248;2023-11-19T08:25:13;23.35;;;13.55;;
38162;SDS011;23977;53.078;18.248;2023-11-19T08:27:39;23.67;;;12.63;;
38162;SDS011;23977;53.078;18.248;2023-11-19T08:30:05;24.63;;;13.88;;
38162;SDS011;23977;53.078;18.248;2023-11-19T08:32:32;25.20;;;14.80;;
38162;SDS011;23977;53.078;18.248;2023-11-19T08:34:58;23.77;;;13.57;;
38162;SDS011;23977;53.078;18.248;2023-11-19T08:37:24;27.58;;;14.20;;
38162;SDS011;23977;53.078;18.248;2023-11-19T08:39:49;27.27;;;14.38;;
38162;SDS011;23977;53.078;18.248;2023-11-19T08:42:19;27.02;;;14.85;;
38162;SDS011;23977;53.078;18.248;2023-11-19T08:44:48;24.98;;;14.52;;
38162;SDS011;23977;53.078;18.248;2023-11-19T08:47:16;28.38;;;15.77;;
38162;SDS011;23977;53.078;18.248;2023-11-19T08:49:45;27.13;;;15.25;;
38162;SDS011;23977;53.078;18.248;2023-11-19T08:52:11;28.92;;;15.50;;
38162;SDS011;23977;53.078;18.248;2023-11-19T08:54:37;26.35;;;15.27;;
38162;SDS011;23977;53.078;18.248;2023-11-19T08:57:03;29.60;;;16.45;;
38162;SDS011;23977;53.078;18.248;2023-11-19T08:59:29;26.83;;;14.77;;
38162;SDS011;23977;53.078;18.248;2023-11-19T09:01:56;28.95;;;16.15;;
38162;SDS011;23977;53.078;18.248;2023-11-19T09:04:21;27.75;;;14.88;;
38162;SDS011;23977;53.078;18.248;2023-11-19T09:06:50;27.80;;;15.55;;
38162;SDS011;23977;53.078;18.248;2023-11-19T09:09:15;29.50;;;16.48;;
38162;SDS011;23977;53.078;18.248;2023-11-19T09:11:41;30.17;;;16.55;;
38162;SDS011;23977;53.078;18.248;2023-11-19T09:14:07;29.15;;;16.83;;
38162;SDS011;23977;53.078;18.248;2023-11-19T09:16:33;30.00;;;16.83;;
38162;SDS011;23977;53.078;18.248;2023-11-19T09:18:58;28.38;;;16.30;;
38162;SDS011;23977;53.078;18.248;2023-11-19T09:21:28;29.27;;;16.30;;
38162;SDS011;23977;53.078;18.248;2023-11-19T09:23:56;29.27;;;16.20;;
38162;SDS011;23977;53.078;18.248;2023-11-19T09:26:22;29.77;;;16.75;;
38162;SDS011;23977;53.078;18.248;2023-11-19T09:28:48;29.90;;;16.63;;
38162;SDS011;23977;53.078;18.248;2023-11-19T09:31:17;31.08;;;16.48;;
38162;SDS011;23977;53.078;18.248;2023-11-19T09:33:43;30.88;;;17.20;;
38162;SDS011;23977;53.078;18.248;2023-11-19T09:36:14;31.05;;;17.27;;
38162;SDS011;23977;53.078;18.248;2023-11-19T09:38:42;36.25;;;19.60;;
38162;SDS011;23977;53.078;18.248;2023-11-19T09:41:09;30.55;;;17.73;;
38162;SDS011;23977;53.078;18.248;2023-11-19T09:43:38;33.00;;;18.40;;
38162;SDS011;23977;53.078;18.248;2023-11-19T09:46:05;32.38;;;18.27;;
38162;SDS011;23977;53.078;18.248;2023-11-19T09:48:34;37.85;;;21.80;;
38162;SDS011;23977;53.078;18.248;2023-11-19T09:51:01;48.58;;;23.60;;
38162;SDS011;23977;53.078;18.248;2023-11-19T09:53:27;45.63;;;26.27;;
38162;SDS011;23977;53.078;18.248;2023-11-19T09:55:53;33.85;;;19.80;;
38162;SDS011;23977;53.078;18.248;2023-11-19T09:58:21;32.70;;;18.05;;
38162;SDS011;23977;53.078;18.248;2023-11-19T10:00:48;32.45;;;18.33;;
38162;SDS011;23977;53.078;18.248;2023-11-19T10:03:15;31.40;;;18.23;;
38162;SDS011;23977;53.078;18.248;2023-11-19T10:05:42;30.13;;;16.25;;
38162;SDS011;23977;53.078;18.248;2023-11-19T10:08:07;34.22;;;18.58;;
38162;SDS011;23977;53.078;18.248;2023-11-19T10:10:34;33.95;;;18.92;;
38162;SDS011;23977;53.078;18.248;2023-11-19T10:12:59;49.55;;;26.90;;
38162;SDS011;23977;53.078;18.248;2023-11-19T10:15:26;37.70;;;20.98;;
38162;SDS011;23977;53.078;18.248;2023-11-19T10:17:55;34.78;;;20.20;;
38162;SDS011;23977;53.078;18.248;2023-11-19T10:20:22;34.15;;;20.10;;
38162;SDS011;23977;53.078;18.248;2023-11-19T10:22:48;36.25;;;20.00;;
38162;SDS011;23977;53.078;18.248;2023-11-19T10:25:26;34.83;;;19.58;;
38162;SDS011;23977;53.078;18.248;2023-11-19T10:27:53;35.13;;;19.80;;
38162;SDS011;23977;53.078;18.248;2023-11-19T10:30:21;33.13;;;18.52;;
38162;SDS011;23977;53.078;18.248;2023-11-19T10:35:33;50.33;;;24.20;;
38162;SDS011;23977;53.078;18.248;2023-11-19T10:38:15;57.38;;;28.45;;
38162;SDS011;23977;53.078;18.248;2023-11-19T10:40:41;45.38;;;24.42;;
38162;SDS011;23977;53.078;18.248;2023-11-19T10:43:07;36.45;;;20.20;;
38162;SDS011;23977;53.078;18.248;2023-11-19T10:45:34;37.92;;;20.30;;
38162;SDS011;23977;53.078;18.248;2023-11-19T10:48:01;35.25;;;19.05;;
38162;SDS011;23977;53.078;18.248;2023-11-19T10:50:28;36.80;;;20.92;;
38162;SDS011;23977;53.078;18.248;2023-11-19T10:52:57;39.65;;;21.00;;
38162;SDS011;23977;53.078;18.248;2023-11-19T10:55:29;36.42;;;20.98;;
38162;SDS011;23977;53.078;18.248;2023-11-19T10:57:58;38.00;;;20.75;;
38162;SDS011;23977;53.078;18.248;2023-11-19T11:00:51;38.47;;;20.13;;
38162;SDS011;23977;53.078;18.248;2023-11-19T11:03:20;37.92;;;19.45;;
38162;SDS011;23977;53.078;18.248;2023-11-19T11:05:49;39.05;;;20.45;;
38162;SDS011;23977;53.078;18.248;2023-11-19T11:08:15;42.78;;;21.60;;
38162;SDS011;23977;53.078;18.248;2023-11-19T11:10:52;40.05;;;21.27;;
38162;SDS011;23977;53.078;18.248;2023-11-19T11:13:19;40.45;;;21.50;;
38162;SDS011;23977;53.078;18.248;2023-11-19T11:15:45;38.30;;;20.75;;
38162;SDS011;23977;53.078;18.248;2023-11-19T11:18:12;37.70;;;20.02;;
38162;SDS011;23977;53.078;18.248;2023-11-19T11:20:39;39.95;;;21.23;;
38162;SDS011;23977;53.078;18.248;2023-11-19T11:31:34;36.80;;;19.58;;
38162;SDS011;23977;53.078;18.248;2023-11-19T11:39:58;39.33;;;20.60;;
38162;SDS011;23977;53.078;18.248;2023-11-19T11:45:05;46.65;;;23.65;;
38162;SDS011;23977;53.078;18.248;2023-11-19T11:50:09;44.08;;;22.00;;
38162;SDS011;23977;53.078;18.248;2023-11-19T11:55:25;41.60;;;20.58;;
38162;SDS011;23977;53.078;18.248;2023-11-19T11:57:53;43.80;;;22.05;;
38162;SDS011;23977;53.078;18.248;2023-11-19T12:02:55;45.10;;;22.15;;
38162;SDS011;23977;53.078;18.248;2023-11-19T12:05:22;45.33;;;22.63;;
38162;SDS011;23977;53.078;18.248;2023-11-19T12:07:55;45.35;;;21.98;;
38162;SDS011;23977;53.078;18.248;2023-11-19T12:10:47;51.55;;;23.27;;
38162;SDS011;23977;53.078;18.248;2023-11-19T12:13:15;45.17;;;21.52;;
38162;SDS011;23977;53.078;18.248;2023-11-19T12:18:28;48.83;;;22.90;;
38162;SDS011;23977;53.078;18.248;2023-11-19T12:20:55;51.33;;;24.40;;
38162;SDS011;23977;53.078;18.248;2023-11-19T12:23:21;48.13;;;23.20;;
38162;SDS011;23977;53.078;18.248;2023-11-19T12:25:50;47.92;;;23.42;;
38162;SDS011;23977;53.078;18.248;2023-11-19T12:28:16;47.90;;;23.27;;
38162;SDS011;23977;53.078;18.248;2023-11-19T12:30:43;48.08;;;22.77;;
38162;SDS011;23977;53.078;18.248;2023-11-19T12:33:10;43.78;;;21.42;;
38162;SDS011;23977;53.078;18.248;2023-11-19T12:35:40;44.30;;;21.85;;
38162;SDS011;23977;53.078;18.248;2023-11-19T12:40:45;43.72;;;21.45;;
38162;SDS011;23977;53.078;18.248;2023-11-19T12:43:11;44.97;;;21.77;;
38162;SDS011;23977;53.078;18.248;2023-11-19T12:45:46;47.25;;;22.85;;
38162;SDS011;23977;53.078;18.248;2023-11-19T12:48:12;50.70;;;23.85;;
38162;SDS011;23977;53.078;18.248;2023-11-19T12:50:50;64.30;;;29.83;;
38162;SDS011;23977;53.078;18.248;2023-11-19T12:53:20;60.92;;;26.73;;
38162;SDS011;23977;53.078;18.248;2023-11-19T12:55:46;67.50;;;29.88;;
38162;SDS011;23977;53.078;18.248;2023-11-19T12:58:31;58.10;;;27.02;;
38162;SDS011;23977;53.078;18.248;2023-11-19T13:01:01;51.33;;;24.13;;
38162;SDS011;23977;53.078;18.248;2023-11-19T13:03:32;50.38;;;23.80;;
38162;SDS011;23977;53.078;18.248;2023-11-19T13:08:35;67.50;;;29.90;;
38162;SDS011;23977;53.078;18.248;2023-11-19T13:11:10;73.88;;;32.17;;
38162;SDS011;23977;53.078;18.248;2023-11-19T13:13:56;48.50;;;24.30;;
38162;SDS011;23977;53.078;18.248;2023-11-19T13:16:23;39.05;;;19.50;;
38162;SDS011;23977;53.078;18.248;2023-11-19T13:18:49;41.35;;;19.98;;
38162;SDS011;23977;53.078;18.248;2023-11-19T13:21:15;41.15;;;19.73;;
38162;SDS011;23977;53.078;18.248;2023-11-19T13:23:41;36.92;;;18.48;;
38162;SDS011;23977;53.078;18.248;2023-11-19T13:26:07;36.72;;;17.92;;
38162;SDS011;23977;53.078;18.248;2023-11-19T13:28:33;37.08;;;19.50;;
38162;SDS011;23977;53.078;18.248;2023-11-19T13:30:59;35.38;;;17.92;;
38162;SDS011;23977;53.078;18.248;2023-11-19T13:33:26;36.03;;;17.63;;
38162;SDS011;23977;53.078;18.248;2023-11-19T13:35:51;36.42;;;18.17;;
38162;SDS011;23977;53.078;18.248;2023-11-19T13:38:17;37.38;;;18.25;;
38162;SDS011;23977;53.078;18.248;2023-11-19T13:40:43;44.60;;;23.13;;
38162;SDS011;23977;53.078;18.248;2023-11-19T13:43:09;34.55;;;18.10;;
38162;SDS011;23977;53.078;18.248;2023-11-19T13:45:34;38.63;;;20.10;;
38162;SDS011;23977;53.078;18.248;2023-11-19T13:48:00;36.30;;;19.02;;
38162;SDS011;23977;53.078;18.248;2023-11-19T13:50:26;37.15;;;18.98;;
38162;SDS011;23977;53.078;18.248;2023-11-19T13:52:51;37.15;;;18.92;;
38162;SDS011;23977;53.078;18.248;2023-11-19T13:55:17;36.70;;;18.90;;
38162;SDS011;23977;53.078;18.248;2023-11-19T13:57:43;35.80;;;18.85;;
38162;SDS011;23977;53.078;18.248;2023-11-19T14:00:09;34.80;;;17.17;;
38162;SDS011;23977;53.078;18.248;2023-11-19T14:02:41;59.40;;;30.00;;
38162;SDS011;23977;53.078;18.248;2023-11-19T14:05:08;42.10;;;20.17;;
38162;SDS011;23977;53.078;18.248;2023-11-19T14:07:36;34.55;;;16.80;;
38162;SDS011;23977;53.078;18.248;2023-11-19T14:10:02;37.78;;;18.10;;
38162;SDS011;23977;53.078;18.248;2023-11-19T14:12:28;33.65;;;17.13;;
38162;SDS011;23977;53.078;18.248;2023-11-19T14:14:54;33.58;;;15.95;;
38162;SDS011;23977;53.078;18.248;2023-11-19T14:17:20;34.47;;;16.30;;
38162;SDS011;23977;53.078;18.248;2023-11-19T14:19:46;34.45;;;17.95;;
38162;SDS011;23977;53.078;18.248;2023-11-19T14:22:12;31.63;;;16.13;;
38162;SDS011;23977;53.078;18.248;2023-11-19T14:24:38;32.85;;;16.42;;
38162;SDS011;23977;53.078;18.248;2023-11-19T14:27:06;35.67;;;18.27;;
38162;SDS011;23977;53.078;18.248;2023-11-19T14:29:31;35.42;;;18.27;;
38162;SDS011;23977;53.078;18.248;2023-11-19T14:31:57;32.08;;;16.30;;
38162;SDS011;23977;53.078;18.248;2023-11-19T14:34:24;40.83;;;19.83;;
38162;SDS011;23977;53.078;18.248;2023-11-19T14:36:52;85.20;;;34.60;;
38162;SDS011;23977;53.078;18.248;2023-11-19T14:39:18;40.13;;;21.98;;
38162;SDS011;23977;53.078;18.248;2023-11-19T14:41:44;31.92;;;16.42;;
38162;SDS011;23977;53.078;18.248;2023-11-19T14:44:10;30.58;;;15.73;;